createdAt,value
2022-09-14T00:04:06.785Z,20.44
2022-09-14T00:06:40.375Z,20.44
2022-09-14T00:12:49.134Z,20.42
2022-09-14T00:15:47.657Z,20.45
2022-09-14T00:18:54.552Z,20.45
2022-09-14T00:21:27.482Z,20.46
2022-09-14T00:24:14.102Z,20.48
2022-09-14T00:27:11.015Z,20.50
2022-09-14T00:33:25.564Z,20.46
2022-09-14T00:40:01.498Z,20.39
2022-09-14T00:43:27.002Z,20.52
2022-09-14T00:46:03.889Z,20.53
2022-09-14T00:48:44.754Z,20.52
2022-09-14T00:51:12.341Z,20.58
2022-09-14T00:53:51.602Z,20.59
2022-09-14T00:57:07.613Z,20.65
2022-09-14T01:03:28.921Z,20.64
2022-09-14T01:10:02.093Z,20.47
2022-09-14T01:13:13.952Z,20.60
2022-09-14T01:24:12.668Z,20.55
2022-09-14T01:30:35.223Z,20.51
2022-09-14T01:33:58.701Z,20.51
2022-09-14T01:41:06.852Z,20.44
2022-09-14T01:44:05.829Z,20.41
2022-09-14T01:46:47.147Z,20.39
2022-09-14T01:53:23.584Z,20.31
2022-09-14T01:56:37.443Z,20.29
2022-09-14T02:03:30.482Z,20.18
2022-09-14T02:06:25.073Z,20.13
2022-09-14T02:09:47.347Z,20.10
2022-09-14T02:12:15.307Z,20.06
2022-09-14T02:14:44.679Z,19.98
2022-09-14T02:17:29.823Z,20.00
2022-09-14T02:20:24.156Z,19.95
2022-09-14T02:22:51.995Z,19.94
2022-09-14T02:25:34.187Z,19.91
2022-09-14T02:28:15.204Z,19.87
2022-09-14T02:31:40.235Z,19.83
2022-09-14T02:38:29.964Z,19.78
2022-09-14T02:41:38.079Z,19.77
2022-09-14T02:55:25.118Z,19.61
2022-09-14T02:58:40.498Z,19.64
2022-09-14T03:05:50.415Z,19.58
2022-09-14T03:09:09.208Z,19.57
2022-09-14T03:19:23.879Z,19.50
2022-09-14T03:25:40.697Z,19.46
2022-09-14T03:28:24.490Z,19.47
2022-09-14T03:31:14.568Z,19.45
2022-09-14T03:37:29.946Z,19.35
2022-09-14T03:39:58.931Z,19.32
2022-09-14T03:42:26.622Z,19.30
2022-09-14T03:45:32.852Z,19.28
2022-09-14T03:48:16.841Z,19.27
2022-09-14T03:55:10.468Z,19.23
2022-09-14T03:58:37.950Z,19.21
2022-09-14T04:01:33.330Z,19.20
2022-09-14T04:07:47.777Z,19.19
2022-09-14T04:10:33.724Z,19.17
2022-09-14T04:13:36.044Z,19.20
2022-09-14T04:16:05.021Z,19.19
2022-09-14T04:22:13.395Z,19.20
2022-09-14T04:24:47.823Z,19.23
2022-09-14T04:31:03.024Z,19.26
2022-09-14T04:37:17.724Z,19.26
2022-09-14T04:43:51.257Z,19.26
2022-09-14T04:46:33.378Z,19.23
2022-09-14T04:52:41.518Z,19.27
2022-09-14T04:55:11.624Z,19.28
2022-09-14T04:57:41.476Z,19.31
2022-09-14T05:00:12.963Z,19.31
2022-09-14T05:03:26.992Z,19.34
2022-09-14T05:06:10.790Z,19.35
2022-09-14T05:09:35.704Z,19.37
2022-09-14T05:19:48.782Z,19.34
2022-09-14T05:22:23.600Z,19.39
2022-09-14T05:24:51.415Z,19.40
2022-09-14T05:28:16.424Z,19.40
2022-09-14T05:34:25.855Z,19.32
2022-09-14T05:37:11.718Z,19.36
2022-09-14T05:39:56.690Z,19.35
2022-09-14T05:42:30.757Z,19.33
2022-09-14T05:45:30.366Z,19.37
2022-09-14T05:48:05.651Z,19.34
2022-09-14T05:50:36.256Z,19.33
2022-09-14T05:53:31.457Z,19.35
2022-09-14T05:56:14.202Z,19.30
2022-09-14T05:58:56.209Z,19.36
2022-09-14T06:01:37.247Z,19.35
2022-09-14T06:04:54.376Z,19.38
2022-09-14T06:08:06.706Z,19.37
2022-09-14T06:10:39.259Z,19.39
2022-09-14T06:18:22.204Z,19.35
2022-09-14T06:22:04.328Z,19.33
2022-09-14T06:24:36.427Z,19.32
2022-09-14T06:27:31.977Z,19.33
2022-09-14T06:30:08.146Z,19.32
2022-09-14T06:32:42.991Z,19.36
2022-09-14T06:35:12.572Z,19.38
2022-09-14T06:37:44.832Z,19.40
2022-09-14T06:40:54.645Z,19.41
2022-09-14T06:43:36.882Z,19.41
2022-09-14T06:46:22.740Z,19.38
2022-09-14T06:49:09.002Z,19.46
2022-09-14T06:51:43.494Z,19.49
2022-09-14T06:54:14.625Z,19.53
2022-09-14T06:56:51.061Z,19.58
2022-09-14T06:59:21.000Z,19.66
2022-09-14T07:02:01.841Z,19.75
2022-09-14T07:04:31.232Z,19.82
2022-09-14T07:07:09.032Z,19.89
2022-09-14T07:12:32.203Z,20.01
2022-09-14T07:15:18.723Z,20.09
2022-09-14T07:18:23.839Z,20.28
2022-09-14T07:20:54.681Z,20.42
2022-09-14T08:17:54.655Z,22.14
2022-09-14T08:20:23.536Z,22.10
2022-09-14T08:22:52.255Z,22.20
2022-09-14T08:25:36.216Z,22.26
2022-09-14T08:28:22.846Z,22.38
2022-09-14T08:31:28.298Z,22.55
2022-09-14T08:34:08.216Z,22.73
2022-09-14T08:41:08.895Z,22.66
2022-09-14T08:44:19.055Z,22.43
2022-09-14T08:47:27.221Z,22.38
2022-09-14T08:50:09.566Z,22.33
2022-09-14T08:53:07.887Z,22.32
2022-09-14T08:55:50.855Z,22.39
2022-09-14T08:58:53.381Z,22.54
2022-09-14T09:01:49.527Z,22.69
2022-09-14T09:05:08.616Z,22.74
2022-09-14T09:07:53.216Z,22.76
2022-09-14T09:10:22.534Z,22.85
2022-09-14T09:13:02.657Z,22.99
2022-09-14T09:15:51.682Z,23.08
2022-09-14T09:18:43.466Z,23.30
2022-09-14T09:21:18.619Z,23.50
2022-09-14T09:23:47.016Z,23.58
2022-09-14T09:26:32.608Z,23.61
2022-09-14T09:29:04.131Z,23.78
2022-09-14T09:31:43.011Z,23.98
2022-09-14T09:34:15.294Z,24.17
2022-09-14T09:36:51.065Z,24.20
2022-09-14T09:39:19.318Z,24.05
2022-09-14T09:42:04.894Z,23.89
2022-09-14T09:45:02.182Z,23.73
2022-09-14T09:47:35.321Z,23.61
2022-09-14T09:50:16.807Z,23.51
2022-09-14T09:53:20.899Z,23.43
2022-09-14T09:55:52.728Z,23.36
2022-09-14T09:58:37.727Z,23.41
2022-09-14T10:01:19.709Z,23.46
2022-09-14T10:04:04.928Z,23.59
2022-09-14T10:06:32.843Z,23.77
2022-09-14T10:09:00.999Z,23.84
2022-09-14T10:11:38.367Z,23.99
2022-09-14T10:18:17.928Z,24.21
2022-09-14T10:21:06.651Z,24.33
2022-09-14T10:23:38.679Z,24.40
2022-09-14T10:26:15.561Z,24.58
2022-09-14T10:28:44.759Z,24.63
2022-09-14T10:31:32.178Z,24.81
2022-09-14T10:34:00.016Z,24.68
2022-09-14T10:36:34.321Z,24.57
2022-09-14T10:39:26.240Z,24.54
2022-09-14T10:42:03.292Z,24.51
2022-09-14T10:45:02.238Z,24.60
2022-09-14T10:47:52.737Z,24.85
2022-09-14T10:50:28.425Z,25.10
2022-09-14T10:52:59.478Z,25.45
2022-09-14T10:55:43.063Z,25.76
2022-09-14T10:58:26.266Z,25.94
2022-09-14T11:01:32.713Z,26.09
2022-09-14T11:04:09.223Z,26.26
2022-09-14T11:07:01.210Z,26.42
2022-09-14T11:09:34.525Z,26.47
2022-09-14T11:12:08.891Z,26.52
2022-09-14T11:15:04.319Z,26.64
2022-09-14T11:17:35.505Z,26.73
2022-09-14T11:20:32.018Z,26.70
2022-09-14T11:23:20.582Z,27.01
2022-09-14T11:25:48.696Z,27.30
2022-09-14T11:28:19.007Z,27.51
2022-09-14T11:31:02.858Z,27.75
2022-09-14T11:33:37.918Z,27.94
2022-09-14T11:36:20.505Z,27.96
2022-09-14T11:39:06.136Z,27.98
2022-09-14T11:41:44.497Z,27.79
2022-09-14T11:44:40.461Z,27.59
2022-09-14T11:47:15.656Z,27.34
2022-09-14T11:50:10.903Z,27.11
2022-09-14T11:52:38.679Z,27.01
2022-09-14T11:55:11.409Z,26.88
2022-09-14T11:57:39.379Z,26.65
2022-09-14T12:00:36.487Z,26.41
2022-09-14T12:03:51.136Z,26.26
2022-09-14T12:06:31.596Z,26.14
2022-09-14T12:09:21.750Z,26.08
2022-09-14T12:11:49.522Z,26.12
2022-09-14T12:14:28.829Z,26.16
2022-09-14T12:20:33.638Z,26.61
2022-09-14T12:23:21.832Z,26.90
2022-09-14T12:26:02.598Z,27.11
2022-09-14T12:28:36.177Z,27.43
2022-09-14T12:31:06.730Z,27.75
2022-09-14T12:33:34.523Z,28.04
2022-09-14T12:36:11.959Z,28.14
2022-09-14T12:39:06.150Z,28.05
2022-09-14T12:41:41.583Z,27.84
2022-09-14T12:44:43.492Z,27.76
2022-09-14T12:47:26.477Z,27.70
2022-09-14T12:49:54.364Z,27.84
2022-09-14T12:52:58.945Z,28.13
2022-09-14T12:56:07.751Z,28.73
2022-09-14T12:58:51.586Z,29.09
2022-09-14T13:01:51.311Z,29.50
2022-09-14T13:04:35.361Z,29.59
2022-09-14T13:07:07.177Z,29.29
2022-09-14T13:09:35.202Z,28.86
2022-09-14T13:12:07.033Z,28.54
2022-09-14T13:15:04.515Z,28.23
2022-09-14T13:17:32.278Z,28.02
2022-09-14T13:20:04.523Z,27.82
2022-09-14T13:22:33.771Z,27.59
2022-09-14T13:25:04.738Z,27.39
2022-09-14T13:27:34.431Z,27.21
2022-09-14T13:30:09.458Z,27.06
2022-09-14T13:32:41.780Z,26.97
2022-09-14T13:35:21.012Z,26.93
2022-09-14T13:37:48.987Z,26.94
2022-09-14T13:40:17.589Z,26.94
2022-09-14T13:42:46.138Z,26.94
2022-09-14T13:45:14.557Z,26.86
2022-09-14T13:47:42.328Z,26.86
2022-09-14T13:50:13.371Z,26.83
2022-09-14T13:53:02.255Z,26.81
2022-09-14T13:55:43.914Z,26.85
2022-09-14T13:58:23.132Z,26.85
2022-09-14T14:01:00.578Z,26.86
2022-09-14T14:03:39.720Z,26.78
2022-09-14T14:06:28.109Z,26.91
2022-09-14T14:09:17.479Z,27.01
2022-09-14T14:11:52.520Z,26.96
2022-09-14T14:14:31.036Z,26.90
2022-09-14T14:17:14.472Z,27.00
2022-09-14T14:19:44.651Z,27.33
2022-09-14T14:22:14.964Z,27.78
2022-09-14T14:25:12.309Z,28.15
2022-09-14T14:27:46.407Z,28.23
2022-09-14T14:30:39.239Z,28.07
2022-09-14T14:33:10.716Z,27.85
2022-09-14T14:35:38.392Z,27.67
2022-09-14T14:38:06.369Z,27.48
2022-09-14T14:40:38.289Z,27.37
2022-09-14T14:43:06.472Z,27.22
2022-09-14T14:45:36.533Z,27.14
2022-09-14T14:48:05.640Z,27.08
2022-09-14T14:50:34.641Z,27.02
2022-09-14T14:53:03.675Z,27.14
2022-09-14T14:55:32.344Z,27.24
2022-09-14T14:58:26.661Z,27.35
2022-09-14T15:01:03.632Z,27.50
2022-09-14T15:03:44.291Z,27.80
2022-09-14T15:06:21.660Z,28.02
2022-09-14T15:08:55.281Z,27.96
2022-09-14T15:11:42.256Z,27.89
2022-09-14T15:14:18.747Z,27.91
2022-09-14T15:17:05.042Z,28.07
2022-09-14T15:19:53.999Z,28.13
2022-09-14T15:22:56.694Z,27.88
2022-09-14T15:25:42.039Z,27.71
2022-09-14T15:28:29.645Z,27.44
2022-09-14T15:31:16.737Z,27.33
2022-09-14T15:37:05.195Z,27.03
2022-09-14T15:39:48.155Z,27.33
2022-09-14T15:42:31.434Z,27.67
2022-09-14T15:45:43.011Z,27.97
2022-09-14T15:48:31.583Z,28.00
2022-09-14T15:51:11.229Z,27.94
2022-09-14T15:53:58.911Z,27.84
2022-09-14T15:56:26.879Z,27.89
2022-09-14T15:59:04.707Z,27.85
2022-09-14T16:01:46.629Z,27.67
2022-09-14T16:04:22.548Z,27.31
2022-09-14T16:07:00.957Z,27.21
2022-09-14T16:09:29.858Z,27.07
2022-09-14T16:12:11.833Z,27.03
2022-09-14T16:14:48.948Z,26.95
2022-09-14T16:17:34.060Z,26.91
2022-09-14T16:20:09.487Z,26.88
2022-09-14T16:23:03.474Z,26.80
2022-09-14T16:25:47.490Z,26.71
2022-09-14T16:28:30.257Z,26.49
2022-09-14T16:31:28.449Z,26.46
2022-09-14T16:34:22.348Z,26.34
2022-09-14T16:36:52.984Z,26.16
2022-09-14T16:39:25.815Z,26.06
2022-09-14T16:41:56.239Z,25.94
2022-09-14T16:44:26.504Z,25.86
2022-09-14T16:46:55.025Z,25.81
2022-09-14T16:49:27.196Z,25.84
2022-09-14T16:51:57.348Z,25.80
2022-09-14T16:54:26.443Z,25.69
2022-09-14T16:56:57.460Z,25.66
2022-09-14T16:59:26.702Z,25.66
2022-09-14T17:01:55.422Z,25.80
2022-09-14T17:04:24.427Z,25.93
2022-09-14T17:06:52.817Z,26.02
2022-09-14T17:09:23.874Z,25.98
2022-09-14T17:11:52.005Z,25.91
2022-09-14T17:14:21.469Z,25.93
2022-09-14T17:16:50.079Z,25.96
2022-09-14T17:19:18.447Z,25.93
2022-09-14T17:21:46.591Z,25.87
2022-09-14T17:24:15.758Z,25.62
2022-09-14T17:26:43.977Z,25.54
2022-09-14T17:29:14.594Z,25.44
2022-09-14T17:31:44.977Z,25.26
2022-09-14T17:43:29.265Z,25.00
2022-09-14T17:46:20.323Z,24.87
2022-09-14T17:53:16.561Z,24.66
2022-09-14T19:52:04.736Z,22.66
2022-09-14T19:54:33.540Z,22.59
2022-09-14T19:57:02.415Z,22.56
2022-09-14T19:59:30.614Z,22.57
2022-09-14T20:01:59.806Z,22.51
2022-09-14T20:04:28.278Z,22.52
2022-09-14T20:06:56.983Z,22.52
2022-09-14T20:09:25.083Z,22.47
2022-09-14T20:11:53.801Z,22.43
2022-09-14T20:14:24.491Z,22.41
2022-09-14T20:16:58.267Z,22.40
2022-09-14T20:19:28.009Z,22.37
2022-09-14T20:21:55.692Z,22.36
2022-09-14T20:24:26.311Z,22.35
2022-09-14T20:26:55.880Z,22.36
2022-09-14T20:29:24.822Z,22.36
2022-09-14T20:31:54.197Z,22.35
2022-09-14T20:34:22.155Z,22.35
2022-09-14T20:36:52.441Z,22.36
2022-09-14T20:39:20.822Z,22.35
2022-09-14T20:41:49.619Z,22.30
2022-09-14T20:44:17.726Z,22.33
2022-09-14T20:46:47.889Z,22.31
2022-09-14T20:49:18.958Z,22.28
2022-09-14T20:51:47.140Z,22.30
2022-09-14T20:54:17.755Z,22.32
2022-09-14T20:56:46.809Z,22.35
2022-09-14T20:59:16.225Z,22.34
2022-09-14T21:01:46.033Z,22.34
2022-09-14T21:04:20.140Z,22.38
2022-09-14T21:06:49.716Z,22.38
2022-09-14T21:09:18.863Z,22.36
2022-09-14T21:11:48.861Z,22.25
2022-09-14T21:14:17.985Z,22.27
2022-09-14T21:24:44.939Z,22.33
2022-09-14T21:27:12.669Z,22.32
2022-09-14T21:29:40.657Z,22.23
2022-09-14T21:36:47.575Z,22.33
2022-09-14T21:39:23.852Z,22.31
2022-09-14T21:41:58.747Z,22.24
2022-09-14T21:44:36.288Z,22.29
2022-09-14T21:47:04.158Z,22.28
2022-09-14T21:49:32.031Z,22.23
2022-09-14T21:52:02.192Z,22.30
2022-09-14T21:54:30.429Z,22.21
2022-09-14T21:56:58.640Z,22.20
2022-09-14T21:59:26.354Z,22.18
2022-09-14T22:01:54.164Z,22.16
2022-09-14T22:04:23.188Z,22.11
2022-09-14T22:06:52.337Z,22.11
2022-09-14T22:09:22.108Z,22.17
2022-09-14T22:11:49.773Z,22.12
2022-09-14T22:14:20.241Z,22.09
2022-09-14T22:24:31.243Z,21.88
2022-09-14T22:27:02.434Z,21.88
2022-09-14T22:29:31.159Z,21.87
2022-09-14T22:31:58.856Z,21.87
2022-09-14T22:34:26.714Z,21.84
2022-09-14T22:36:55.067Z,21.81
2022-09-14T22:39:22.723Z,21.74
2022-09-14T22:41:51.161Z,21.74
2022-09-14T22:44:19.271Z,21.66
2022-09-14T22:46:48.343Z,21.68
2022-09-14T22:49:17.118Z,21.63
2022-09-14T22:51:45.118Z,21.62
2022-09-14T22:54:12.927Z,21.60
2022-09-14T22:56:41.834Z,21.54
2022-09-14T22:59:10.535Z,21.53
2022-09-14T23:01:40.530Z,21.49
2022-09-14T23:04:12.409Z,21.48
2022-09-14T23:06:45.324Z,21.49
2022-09-14T23:09:16.690Z,21.45
2022-09-14T23:11:45.284Z,21.42
2022-09-14T23:14:14.991Z,21.42
2022-09-14T23:16:43.567Z,21.44
2022-09-14T23:19:15.062Z,21.42
2022-09-14T23:21:43.880Z,21.42
2022-09-14T23:24:11.660Z,21.41
2022-09-14T23:26:42.010Z,21.38
2022-09-14T23:29:13.166Z,21.37
2022-09-14T23:31:42.157Z,21.33
2022-09-14T23:34:10.281Z,21.33
2022-09-14T23:36:38.265Z,21.28
2022-09-14T23:39:06.043Z,21.27
2022-09-14T23:41:33.637Z,21.26
2022-09-14T23:44:02.736Z,21.26
2022-09-14T23:46:32.354Z,21.19
2022-09-14T23:49:00.058Z,21.15
2022-09-14T23:51:27.781Z,21.18
2022-09-14T23:53:55.715Z,21.15
2022-09-14T23:56:23.294Z,21.09
2022-09-14T23:58:51.134Z,21.09
